Time;durP1;ratioP1;P1;durP2;ratioP2;P2;SDS_P1;SDS_P2;PMS_P1;PMS_P2;Temp;Humidity;BMP_temperature;BMP_pressure;BME280_temperature;BME280_humidity;BME280_pressure;Samples;Min_cycle;Max_cycle;Signal;HPM_P1;HPM_P2
2023/10/31 00:01:59;;;;;;;33.72;20.58;;;;;;;8.63;100.00;99577.47;5042292;28;20536;-69
2023/10/31 00:04:24;;;;;;;30.00;18.75;;;;;;;8.62;100.00;99583.66;5044851;28;20133;-68
2023/10/31 00:06:50;;;;;;;31.63;19.25;;;;;;;8.61;100.00;99595.06;5039727;28;20032;-69
2023/10/31 00:09:16;;;;;;;29.00;17.27;;;;;;;8.63;100.00;99593.28;5044417;28;20072;-69
2023/10/31 00:11:42;;;;;;;29.17;15.82;;;;;;;8.55;100.00;99605.66;5042512;28;20029;-69
2023/10/31 00:14:08;;;;;;;26.92;14.20;;;;;;;8.49;100.00;99600.41;5043473;28;20022;-68
2023/10/31 00:16:34;;;;;;;26.73;13.57;;;;;;;8.44;100.00;99604.81;5043532;28;20437;-71
2023/10/31 00:18:59;;;;;;;26.70;13.15;;;;;;;8.42;100.00;99611.84;5041825;28;20037;-71
2023/10/31 00:21:24;;;;;;;24.55;11.65;;;;;;;8.41;100.00;99612.75;5044681;28;20075;-72
2023/10/31 00:23:50;;;;;;;26.63;12.05;;;;;;;8.42;100.00;99604.81;5041311;28;20488;-72
2023/10/31 00:26:15;;;;;;;25.80;11.70;;;;;;;8.35;100.00;99609.25;5044255;28;20101;-71
2023/10/31 00:28:40;;;;;;;25.17;10.98;;;;;;;8.36;100.00;99613.63;5042297;28;20029;-72
2023/10/31 00:31:07;;;;;;;24.77;10.45;;;;;;;8.37;100.00;99602.22;5042977;28;20037;-73
2023/10/31 00:33:34;;;;;;;23.60;9.75;;;;;;;8.39;100.00;99602.22;5043358;28;20389;-72
2023/10/31 00:35:59;;;;;;;23.48;9.73;;;;;;;8.37;100.00;99607.50;5040430;28;20076;-71
2023/10/31 00:38:25;;;;;;;25.13;9.98;;;;;;;8.38;100.00;99616.25;5044341;28;20114;-72
2023/10/31 00:40:50;;;;;;;23.02;9.63;;;;;;;8.36;100.00;99613.63;5041269;28;20077;-72
2023/10/31 00:43:15;;;;;;;25.00;9.88;;;;;;;8.36;100.00;99613.63;5044094;28;20029;-72
2023/10/31 00:45:41;;;;;;;24.17;10.13;;;;;;;8.34;100.00;99615.41;5042000;28;20025;-72
2023/10/31 00:48:06;;;;;;;23.77;9.45;;;;;;;8.32;100.00;99619.81;5041030;28;20084;-72
2023/10/31 00:50:31;;;;;;;23.25;8.70;;;;;;;8.31;100.00;99622.44;5043394;28;20059;-72
2023/10/31 00:52:57;;;;;;;23.38;9.00;;;;;;;8.32;100.00;99632.09;5039986;28;20036;-72
2023/10/31 00:55:22;;;;;;;22.33;8.98;;;;;;;8.31;100.00;99631.22;5044229;28;20518;-72
2023/10/31 00:57:47;;;;;;;22.27;9.10;;;;;;;8.32;100.00;99634.75;5041381;28;20033;-71
2023/10/31 01:00:13;;;;;;;22.08;8.43;;;;;;;8.31;100.00;99631.22;5043290;28;20052;-72
2023/10/31 01:02:39;;;;;;;24.17;9.25;;;;;;;8.33;100.00;99637.34;5042079;28;20031;-70
2023/10/31 01:05:04;;;;;;;24.65;9.40;;;;;;;8.36;100.00;99634.72;5042033;28;20032;-72
2023/10/31 01:07:30;;;;;;;24.20;9.27;;;;;;;8.36;100.00;99639.09;5043171;28;20029;-70
2023/10/31 01:09:55;;;;;;;26.38;10.90;;;;;;;8.37;100.00;99647.00;5040622;28;20113;-72
2023/10/31 01:12:20;;;;;;;28.27;12.43;;;;;;;8.35;100.00;99648.75;5044380;28;20387;-72
2023/10/31 01:14:46;;;;;;;30.23;13.32;;;;;;;8.37;100.00;99648.72;5041230;28;20638;-72
2023/10/31 01:17:11;;;;;;;30.60;13.93;;;;;;;8.34;100.00;99657.56;5042935;28;20392;-72
2023/10/31 01:19:36;;;;;;;32.22;14.70;;;;;;;8.37;100.00;99652.25;5044467;28;20456;-72
2023/10/31 01:22:02;;;;;;;37.25;17.90;;;;;;;8.41;100.00;99658.38;5045534;28;20384;-73
2023/10/31 01:24:27;;;;;;;38.60;19.08;;;;;;;8.43;100.00;99661.00;5048125;28;20112;-71
2023/10/31 01:26:52;;;;;;;39.63;19.73;;;;;;;8.42;100.00;99659.25;5044526;28;20021;-72
2023/10/31 01:29:18;;;;;;;44.13;21.55;;;;;;;8.43;100.00;99661.00;5046336;28;20116;-72
2023/10/31 01:31:44;;;;;;;46.72;24.63;;;;;;;8.44;100.00;99662.75;5044191;28;20025;-68
2023/10/31 01:34:09;;;;;;;47.83;25.52;;;;;;;8.44;100.00;99657.50;5044943;28;20036;-71
2023/10/31 01:36:34;;;;;;;47.40;25.73;;;;;;;8.44;100.00;99663.66;5046605;28;20033;-71
2023/10/31 01:39:00;;;;;;;52.53;27.27;;;;;;;8.42;100.00;99656.59;5045169;28;20037;-69
2023/10/31 01:41:25;;;;;;;50.55;27.48;;;;;;;8.43;100.00;99653.09;5047618;28;20048;-72
2023/10/31 01:43:50;;;;;;;53.08;29.55;;;;;;;8.43;100.00;99661.00;5044190;28;20030;-71
2023/10/31 01:46:16;;;;;;;55.20;29.83;;;;;;;8.43;100.00;99661.00;5047153;28;20057;-71
2023/10/31 01:48:42;;;;;;;56.72;30.77;;;;;;;8.45;100.00;99659.28;5045236;28;20091;-71
2023/10/31 01:51:09;;;;;;;58.35;32.42;;;;;;;8.48;100.00;99656.63;5045822;28;20033;-71
2023/10/31 01:53:35;;;;;;;59.55;32.85;;;;;;;8.45;100.00;99657.50;5046523;28;20372;-71
2023/10/31 01:56:02;;;;;;;60.13;32.80;;;;;;;8.44;100.00;99654.84;5044685;28;20029;-70
2023/10/31 01:58:34;;;;;;;61.90;34.58;;;;;;;8.44;100.00;99653.13;5046960;28;20041;-72
2023/10/31 02:01:00;;;;;;;63.80;35.25;;;;;;;8.42;100.00;99653.97;5044661;28;20021;-71
2023/10/31 02:03:27;;;;;;;67.32;35.10;;;;;;;8.40;100.00;99655.75;5047212;28;20112;-71
2023/10/31 02:05:54;;;;;;;66.32;36.63;;;;;;;8.42;100.00;99660.13;5043724;28;20037;-70
2023/10/31 02:08:19;;;;;;;69.82;36.75;;;;;;;8.47;100.00;99670.66;5046763;28;20438;-71
2023/10/31 02:10:44;;;;;;;66.88;35.88;;;;;;;8.47;100.00;99670.66;5044863;28;20041;-73
2023/10/31 02:13:19;;;;;;;68.18;37.00;;;;;;;8.49;100.00;99672.41;5045628;28;20072;-72
2023/10/31 02:15:45;;;;;;;71.80;37.95;;;;;;;8.52;100.00;99674.16;5044532;28;20029;-72
2023/10/31 02:18:11;;;;;;;71.97;38.28;;;;;;;8.54;100.00;99669.75;5045558;28;20041;-70
2023/10/31 02:20:37;;;;;;;73.22;38.50;;;;;;;8.59;100.00;99667.97;5043945;28;20094;-70
2023/10/31 02:23:03;;;;;;;69.78;37.75;;;;;;;8.60;100.00;99674.13;5044789;28;20021;-70
2023/10/31 02:25:29;;;;;;;73.88;39.13;;;;;;;8.61;100.00;99660.06;5046379;28;20052;-68
2023/10/31 02:27:54;;;;;;;72.45;39.78;;;;;;;8.62;100.00;99667.97;5043424;28;20475;-69
2023/10/31 02:30:20;;;;;;;75.82;40.63;;;;;;;8.64;100.00;99666.19;5046369;28;20025;-68
2023/10/31 02:32:46;;;;;;;75.80;39.97;;;;;;;8.65;100.00;99673.19;5044052;28;20041;-68
2023/10/31 02:35:12;;;;;;;75.57;40.35;;;;;;;8.67;100.00;99668.78;5045252;28;20032;-69
2023/10/31 02:37:37;;;;;;;76.13;40.45;;;;;;;8.67;100.00;99679.31;5045043;28;20079;-68
2023/10/31 02:40:03;;;;;;;74.50;38.88;;;;;;;8.66;100.00;99679.34;5044076;28;20029;-68
2023/10/31 02:42:28;;;;;;;77.18;41.83;;;;;;;8.67;100.00;99675.81;5046168;28;20025;-71
2023/10/31 02:44:54;;;;;;;78.47;41.80;;;;;;;8.65;100.00;99675.84;5043305;28;20038;-69
2023/10/31 02:47:19;;;;;;;76.53;41.53;;;;;;;8.67;100.00;99687.22;5046228;28;20031;-68
2023/10/31 02:49:45;;;;;;;81.68;42.53;;;;;;;8.64;100.00;99687.25;5043862;28;20056;-68
2023/10/31 02:52:10;;;;;;;78.53;42.60;;;;;;;8.62;100.00;99681.13;5044761;28;20053;-69
2023/10/31 02:54:36;;;;;;;84.75;42.13;;;;;;;8.63;100.00;99688.13;5044944;28;20033;-68
2023/10/31 02:57:02;;;;;;;80.18;42.03;;;;;;;8.67;100.00;99689.00;5043773;28;20033;-69
2023/10/31 02:59:27;;;;;;;76.15;41.53;;;;;;;8.67;100.00;99686.38;5046057;28;20052;-69
2023/10/31 03:01:53;;;;;;;77.47;41.45;;;;;;;8.66;100.00;99688.09;5042828;28;20464;-71
2023/10/31 03:04:18;;;;;;;79.70;42.92;;;;;;;8.67;100.00;99695.13;5045944;28;20491;-71
2023/10/31 03:06:44;;;;;;;78.18;42.40;;;;;;;8.66;100.00;99689.88;5043414;28;20075;-71
2023/10/31 03:09:09;;;;;;;78.55;42.70;;;;;;;8.67;100.00;99703.03;5044184;28;20056;-72
2023/10/31 03:11:35;;;;;;;81.57;42.88;;;;;;;8.67;100.00;99699.53;5043706;28;20029;-70
2023/10/31 03:14:00;;;;;;;75.18;40.95;;;;;;;8.69;100.00;99710.94;5043002;28;20032;-71
2023/10/31 03:16:26;;;;;;;77.40;42.53;;;;;;;8.68;100.00;99704.78;5045925;28;20029;-72
2023/10/31 03:18:51;;;;;;;76.40;42.30;;;;;;;8.69;100.00;99716.19;5038439;28;20033;-71
2023/10/31 03:21:17;;;;;;;78.70;43.03;;;;;;;8.69;100.00;99710.94;5045102;28;20044;-70
2023/10/31 03:23:50;;;;;;;78.45;42.35;;;;;;;8.69;100.00;99722.38;5042284;28;20036;-72
2023/10/31 03:26:16;;;;;;;78.10;42.97;;;;;;;8.68;100.00;99725.88;5043690;28;20026;-71
2023/10/31 03:28:44;;;;;;;83.15;43.45;;;;;;;8.72;100.00;99734.63;5042193;28;20037;-72
2023/10/31 03:31:09;;;;;;;81.53;43.35;;;;;;;8.72;100.00;99738.16;5043853;28;20087;-72
2023/10/31 03:33:35;;;;;;;80.47;42.70;;;;;;;8.73;100.00;99739.88;5043332;28;20029;-72
2023/10/31 03:36:00;;;;;;;86.18;43.88;;;;;;;8.72;100.00;99734.63;5042540;28;20104;-72
2023/10/31 03:38:26;;;;;;;84.82;44.80;;;;;;;8.73;100.00;99752.19;5045534;28;20087;-72
2023/10/31 03:40:51;;;;;;;87.20;45.75;;;;;;;8.71;100.00;99741.66;5041892;28;20084;-72
2023/10/31 03:43:16;;;;;;;85.35;44.70;;;;;;;8.69;100.00;99746.06;5044253;28;20041;-72
2023/10/31 03:45:42;;;;;;;89.13;45.50;;;;;;;8.68;100.00;99744.31;5043309;28;20029;-72
2023/10/31 03:48:07;;;;;;;89.20;45.45;;;;;;;8.68;100.00;99746.09;5043515;28;20120;-71
2023/10/31 03:50:32;;;;;;;86.65;45.83;;;;;;;8.67;100.00;99746.97;5044253;28;20025;-72
2023/10/31 03:53:01;;;;;;;87.63;45.67;;;;;;;8.67;100.00;99763.63;5041981;28;20026;-72
2023/10/31 03:55:26;;;;;;;89.22;45.80;;;;;;;8.68;100.00;99764.53;5045170;28;20021;-72
2023/10/31 03:57:51;;;;;;;83.75;45.15;;;;;;;8.71;100.00;99765.38;5041863;28;20080;-72
2023/10/31 04:00:17;;;;;;;87.68;45.45;;;;;;;8.68;100.00;99770.66;5044626;28;20033;-71
2023/10/31 04:02:42;;;;;;;86.03;44.85;;;;;;;8.69;100.00;99769.78;5042724;28;20503;-72
2023/10/31 04:05:08;;;;;;;84.63;46.63;;;;;;;8.70;100.00;99775.91;5043115;28;20022;-73
2023/10/31 04:07:33;;;;;;;87.00;45.45;;;;;;;8.73;100.00;99782.03;5042817;28;20037;-73
2023/10/31 04:09:59;;;;;;;87.80;45.17;;;;;;;8.71;100.00;99778.53;5040169;28;20088;-72
2023/10/31 04:12:24;;;;;;;86.82;45.42;;;;;;;8.74;100.00;99780.31;5044819;28;20483;-72
2023/10/31 04:14:49;;;;;;;82.70;43.28;;;;;;;8.71;100.00;99773.28;5041761;28;20029;-72
2023/10/31 04:17:15;;;;;;;78.63;43.47;;;;;;;8.70;100.00;99782.06;5043715;28;20037;-72
2023/10/31 04:19:40;;;;;;;73.05;42.17;;;;;;;8.78;100.00;99781.13;5042685;28;20062;-72
2023/10/31 04:22:06;;;;;;;73.50;42.17;;;;;;;8.69;100.00;99785.59;5041324;28;20030;-72
2023/10/31 04:24:31;;;;;;;69.68;40.88;;;;;;;8.66;100.00;99793.50;5043847;28;20025;-72
2023/10/31 04:26:56;;;;;;;71.22;41.00;;;;;;;8.64;100.00;99797.91;5041300;28;20038;-72
2023/10/31 04:29:22;;;;;;;69.05;40.20;;;;;;;8.63;100.00;99798.78;5044476;28;20032;-73
2023/10/31 04:31:47;;;;;;;69.10;39.35;;;;;;;8.64;100.00;99804.94;5041630;28;20029;-72
2023/10/31 04:34:13;;;;;;;67.07;39.95;;;;;;;8.65;100.00;99809.31;5043672;28;20029;-72
2023/10/31 04:36:39;;;;;;;64.53;37.90;;;;;;;8.63;100.00;99809.31;5042832;28;20063;-71
2023/10/31 04:39:05;;;;;;;64.13;37.72;;;;;;;8.64;100.00;99813.72;5040558;28;20037;-72
2023/10/31 04:41:31;;;;;;;68.03;38.88;;;;;;;8.65;100.00;99819.84;5043910;28;20083;-71
2023/10/31 04:43:56;;;;;;;72.63;40.35;;;;;;;8.68;100.00;99810.19;5041223;28;20077;-72
2023/10/31 04:46:21;;;;;;;67.85;38.88;;;;;;;8.65;100.00;99815.47;5044112;28;20037;-72
2023/10/31 04:48:47;;;;;;;71.72;38.53;;;;;;;8.64;100.00;99816.34;5041674;28;20076;-73
2023/10/31 04:51:12;;;;;;;70.88;38.72;;;;;;;8.65;100.00;99833.91;5042906;28;20032;-73
2023/10/31 04:53:37;;;;;;;69.97;39.70;;;;;;;8.66;100.00;99838.28;5042582;28;20032;-72
2023/10/31 04:56:04;;;;;;;63.13;35.47;;;;;;;8.63;100.00;99833.03;5041711;28;20032;-72
2023/10/31 04:58:29;;;;;;;59.67;33.88;;;;;;;8.61;100.00;99840.06;5043779;28;20025;-72
2023/10/31 05:00:54;;;;;;;52.38;30.00;;;;;;;8.57;100.00;99833.06;5040723;28;20041;-73
2023/10/31 05:03:20;;;;;;;51.38;29.23;;;;;;;8.55;100.00;99830.44;5043848;28;20040;-70
2023/10/31 05:05:45;;;;;;;56.67;31.15;;;;;;;8.54;100.00;99844.47;5041634;28;20056;-71
2023/10/31 05:08:10;;;;;;;56.17;33.60;;;;;;;8.55;100.00;99838.34;5042654;28;20056;-70
2023/10/31 05:10:36;;;;;;;61.53;34.03;;;;;;;8.54;100.00;99843.59;5043098;28;20060;-71
2023/10/31 05:13:04;;;;;;;65.60;34.53;;;;;;;8.52;100.00;99843.63;5041151;28;20061;-70
2023/10/31 05:15:29;;;;;;;64.55;36.83;;;;;;;8.53;100.00;99848.00;5043865;28;20031;-70
2023/10/31 05:17:55;;;;;;;69.43;37.47;;;;;;;8.52;100.00;99832.22;5040442;28;20037;-70
2023/10/31 05:20:20;;;;;;;69.07;37.97;;;;;;;8.53;100.00;99836.56;5043568;28;20121;-67
2023/10/31 05:22:45;;;;;;;66.88;38.33;;;;;;;8.53;100.00;99836.56;5041615;28;20082;-68
2023/10/31 05:25:11;;;;;;;69.30;38.30;;;;;;;8.55;100.00;99833.06;5042214;28;20091;-69
2023/10/31 05:27:36;;;;;;;65.35;37.50;;;;;;;8.52;100.00;99832.22;5042566;28;20451;-72
2023/10/31 05:30:02;;;;;;;67.78;39.13;;;;;;;8.52;100.00;99829.56;5040134;28;20063;-71
2023/10/31 05:32:27;;;;;;;67.43;37.88;;;;;;;8.50;100.00;99834.84;5043830;28;20029;-68
2023/10/31 05:34:52;;;;;;;66.72;38.28;;;;;;;8.49;100.00;99833.09;5036393;28;20037;-68
2023/10/31 05:37:18;;;;;;;66.65;37.45;;;;;;;8.49;100.00;99830.47;5043191;28;20036;-68
2023/10/31 05:39:43;;;;;;;62.88;37.50;;;;;;;8.47;100.00;99841.88;5041613;28;20025;-69
2023/10/31 05:42:08;;;;;;;64.10;38.22;;;;;;;8.44;100.00;99849.75;5041768;28;20014;-72
2023/10/31 05:44:34;;;;;;;65.22;38.15;;;;;;;8.43;100.00;99861.16;5043218;28;20083;-72
2023/10/31 05:46:59;;;;;;;64.97;38.88;;;;;;;8.41;100.00;99869.06;5039119;28;20037;-72
2023/10/31 05:49:24;;;;;;;65.75;40.08;;;;;;;8.40;100.00;99863.81;5042532;28;20114;-73
2023/10/31 05:51:51;;;;;;;64.85;39.47;;;;;;;8.37;100.00;99873.47;5022828;28;20029;-72
2023/10/31 05:54:19;;;;;;;63.63;38.88;;;;;;;8.35;100.00;99869.09;5042789;28;20103;-74
2023/10/31 05:56:44;;;;;;;65.68;38.72;;;;;;;8.30;100.00;99873.47;5041358;28;20369;-72
2023/10/31 05:59:13;;;;;;;62.25;37.20;;;;;;;8.28;100.00;99881.38;5041631;28;20036;-69
2023/10/31 06:01:38;;;;;;;61.97;36.78;;;;;;;8.25;100.00;99884.00;5042069;28;20155;-69
2023/10/31 06:04:03;;;;;;;59.47;34.75;;;;;;;8.21;100.00;99887.53;5041197;28;20116;-69
2023/10/31 06:06:33;;;;;;;56.67;34.72;;;;;;;8.17;100.00;99893.69;5046721;28;20483;-69
2023/10/31 06:08:58;;;;;;;57.92;34.55;;;;;;;8.11;100.00;99894.56;5043530;28;20504;-69
2023/10/31 06:11:23;;;;;;;56.90;32.97;;;;;;;8.07;100.00;99895.44;5047305;28;20040;-69
2023/10/31 06:13:49;;;;;;;54.17;32.42;;;;;;;7.99;100.00;99895.47;5044057;28;20029;-69
2023/10/31 06:16:14;;;;;;;56.58;32.47;;;;;;;7.96;100.00;99902.47;5044547;28;20064;-69
2023/10/31 06:18:40;;;;;;;53.85;32.35;;;;;;;7.89;100.00;99908.59;5045565;28;20444;-69
2023/10/31 06:21:06;;;;;;;56.38;32.80;;;;;;;7.89;100.00;99908.59;5044455;28;20029;-69
2023/10/31 06:23:31;;;;;;;55.03;32.25;;;;;;;7.83;100.00;99917.38;5046705;28;20039;-69
2023/10/31 06:25:56;;;;;;;54.08;31.75;;;;;;;7.78;100.00;99925.25;5042272;28;20036;-69
2023/10/31 06:28:23;;;;;;;56.35;32.92;;;;;;;7.81;100.00;99925.25;5046355;28;20037;-69
2023/10/31 06:30:48;;;;;;;56.70;32.42;;;;;;;7.87;100.00;99932.28;5042676;28;20103;-69
2023/10/31 06:33:13;;;;;;;61.53;34.05;;;;;;;7.98;100.00;99932.28;5045545;28;20435;-69
2023/10/31 06:35:39;;;;;;;61.78;33.78;;;;;;;8.01;100.00;99927.91;5045184;28;20031;-69
2023/10/31 06:38:04;;;;;;;60.08;33.30;;;;;;;8.06;100.00;99932.31;5043907;28;20033;-69
2023/10/31 06:40:30;;;;;;;63.65;35.08;;;;;;;8.07;100.00;99932.31;5046435;28;20029;-69
2023/10/31 06:42:55;;;;;;;62.60;35.40;;;;;;;8.09;100.00;99934.94;5043049;28;20022;-69
2023/10/31 06:45:21;;;;;;;63.88;34.60;;;;;;;8.13;100.00;99937.56;5046160;28;20032;-69
2023/10/31 08:49:14;;;;;;;47.03;28.02;;;;;;;9.21;100.00;100034.91;5090109;27;20404;-72
2023/10/31 08:51:40;;;;;;;44.83;27.35;;;;;;;9.13;100.00;100042.00;5078505;28;20405;-72
2023/10/31 08:54:05;;;;;;;44.13;27.20;;;;;;;9.10;100.00;100059.56;5080375;28;20108;-70
2023/10/31 08:56:30;;;;;;;45.47;27.52;;;;;;;9.06;100.00;100053.44;5078288;28;20029;-69
2023/10/31 08:58:56;;;;;;;45.83;27.52;;;;;;;9.16;100.00;100062.19;5078880;28;20113;-69
2023/10/31 09:01:21;;;;;;;44.58;26.85;;;;;;;9.34;100.00;100063.91;5080790;28;20032;-69
2023/10/31 09:03:47;;;;;;;42.05;25.58;;;;;;;9.33;100.00;100077.97;5078189;28;20387;-73
2023/10/31 09:06:12;;;;;;;44.20;26.60;;;;;;;9.31;100.00;100075.34;5079798;28;20032;-70
2023/10/31 09:08:38;;;;;;;41.92;24.90;;;;;;;9.29;100.00;100076.22;5078686;28;20040;-70
2023/10/31 09:11:05;;;;;;;39.50;23.98;;;;;;;9.27;100.00;100081.50;5080037;28;20051;-70
2023/10/31 09:13:30;;;;;;;39.33;24.00;;;;;;;9.25;100.00;100080.63;5079292;28;20027;-72
2023/10/31 09:15:57;;;;;;;41.83;24.83;;;;;;;9.23;100.00;100087.66;5078932;28;20025;-73
2023/10/31 09:18:24;;;;;;;39.83;24.27;;;;;;;9.36;100.00;100080.59;5079256;28;20040;-73
2023/10/31 09:20:49;;;;;;;39.38;24.42;;;;;;;9.53;100.00;100088.47;5077601;28;20112;-70
2023/10/31 09:23:15;;;;;;;40.42;24.25;;;;;;;9.52;100.00;100089.34;5081127;28;20115;-70
2023/10/31 09:25:40;;;;;;;40.42;24.58;;;;;;;9.73;100.00;100099.81;5077674;28;20460;-70
2023/10/31 10:44:36;;;;;;;24.67;14.90;;;;;;;11.08;100.00;100186.22;5151817;27;20397;-68
2023/10/31 10:47:03;;;;;;;25.85;14.98;;;;;;;10.82;100.00;100196.13;5151575;27;20039;-68
2023/10/31 10:49:33;;;;;;;24.67;14.00;;;;;;;10.49;100.00;100196.34;5151394;27;20031;-68
2023/10/31 10:52:06;;;;;;;25.27;15.18;;;;;;;10.30;100.00;100201.69;5151689;27;20026;-65
2023/10/31 10:55:08;;;;;;;25.70;14.77;;;;;;;10.33;100.00;100200.78;5150284;27;20023;-65
2023/10/31 10:57:48;;;;;;;25.23;14.35;;;;;;;10.17;100.00;100200.84;5145358;27;20480;-68
2023/10/31 11:00:15;;;;;;;25.02;14.60;;;;;;;10.02;100.00;100201.78;5148428;27;20030;-67
2023/10/31 11:02:43;;;;;;;25.27;14.75;;;;;;;9.95;100.00;100197.41;5151195;27;20027;-68
2023/10/31 11:05:09;;;;;;;26.23;14.80;;;;;;;10.00;100.00;100203.53;5151167;27;20485;-68
2023/10/31 11:07:38;;;;;;;25.58;15.20;;;;;;;10.01;100.00;100205.31;5151530;27;20035;-68
2023/10/31 11:10:04;;;;;;;26.33;15.07;;;;;;;10.11;100.00;100201.75;5151060;27;20023;-68
2023/10/31 11:12:31;;;;;;;26.17;16.50;;;;;;;10.18;100.00;100197.34;5150967;27;20026;-65
2023/10/31 11:15:02;;;;;;;26.98;15.60;;;;;;;10.38;100.00;100204.31;5150998;27;20023;-68
2023/10/31 11:17:31;;;;;;;27.30;15.98;;;;;;;10.42;100.00;100209.56;5151233;27;20050;-67
2023/10/31 11:19:57;;;;;;;26.50;15.73;;;;;;;10.28;100.00;100200.78;5150859;27;20045;-68
2023/10/31 11:22:22;;;;;;;27.35;15.55;;;;;;;10.19;100.00;100209.63;5150786;27;20520;-68
2023/10/31 11:24:51;;;;;;;26.30;15.57;;;;;;;10.19;100.00;100211.41;5150950;27;20106;-68
2023/10/31 11:27:17;;;;;;;26.85;15.38;;;;;;;10.17;100.00;100219.34;5150706;27;20046;-68
2023/10/31 11:29:43;;;;;;;27.55;15.77;;;;;;;10.23;100.00;100215.81;5150573;27;20515;-68
2023/10/31 11:32:10;;;;;;;27.30;15.23;;;;;;;10.26;100.00;100215.78;5150762;27;20031;-68
2023/10/31 11:34:39;;;;;;;25.48;14.55;;;;;;;10.45;100.00;100212.19;5146349;27;20365;-68
2023/10/31 11:37:27;;;;;;;25.88;14.32;;;;;;;10.57;100.00;100220.94;5150582;27;20038;-69
2023/10/31 11:40:22;;;;;;;26.00;14.93;;;;;;;10.57;100.00;100208.63;5148777;27;20062;-68
2023/10/31 11:42:57;;;;;;;25.05;13.80;;;;;;;10.82;100.00;100204.06;5130326;27;20529;-68
2023/10/31 11:45:33;;;;;;;25.70;13.93;;;;;;;11.25;100.00;100204.63;5105367;27;20048;-68
2023/10/31 11:47:58;;;;;;;24.05;13.25;;;;;;;11.73;100.00;100205.03;5108728;27;20040;-60
2023/10/31 11:50:24;;;;;;;24.55;12.82;;;;;;;13.04;100.00;100198.03;5104087;27;20132;-60
2023/10/31 11:53:06;;;;;;;23.33;11.82;;;;;;;13.33;100.00;100183.41;5101941;27;20037;-60
2023/10/31 11:55:37;;;;;;;21.65;10.70;;;;;;;13.03;100.00;100175.06;5096683;27;20029;-61
2023/10/31 11:58:11;;;;;;;22.67;11.25;;;;;;;13.17;100.00;100180.13;5111219;27;20022;-62
2023/10/31 12:00:37;;;;;;;22.05;10.13;;;;;;;13.80;100.00;100171.97;5090458;27;20029;-62
2023/10/31 12:03:02;;;;;;;20.85;10.07;;;;;;;14.60;100.00;100176.44;5110966;27;20426;-63
2023/10/31 12:05:28;;;;;;;19.27;8.45;;;;;;;15.40;100.00;100162.16;5100642;27;20533;-63
2023/10/31 12:07:55;;;;;;;20.35;8.45;;;;;;;14.75;100.00;100169.06;5104858;27;20035;-60
2023/10/31 12:10:31;;;;;;;19.35;8.30;;;;;;;14.11;100.00;100170.44;5106325;27;20060;-61
2023/10/31 12:12:58;;;;;;;20.08;8.43;;;;;;;13.47;100.00;100171.69;5106848;27;20074;-61
2023/10/31 12:15:24;;;;;;;19.80;8.40;;;;;;;14.65;100.00;100173.75;5104201;27;20495;-65
2023/10/31 12:17:50;;;;;;;19.13;6.90;;;;;;;15.16;100.00;100176.03;5093935;27;20498;-64
2023/10/31 12:20:16;;;;;;;17.20;6.20;;;;;;;14.61;100.00;100172.03;5092443;27;20038;-65
2023/10/31 12:22:42;;;;;;;16.75;6.00;;;;;;;14.24;100.00;100168.41;5103357;27;20427;-63
2023/10/31 12:25:10;;;;;;;19.75;6.72;;;;;;;14.03;100.00;100172.38;5112757;27;20064;-64
2023/10/31 12:27:45;;;;;;;16.38;6.03;;;;;;;13.58;100.00;100175.88;5106832;27;20084;-61
2023/10/31 12:30:18;;;;;;;18.27;5.97;;;;;;;13.30;100.00;100178.16;5103881;27;20025;-60
2023/10/31 12:32:45;;;;;;;16.65;6.15;;;;;;;13.30;100.00;100182.59;5092170;27;20041;-62
2023/10/31 12:35:16;;;;;;;17.00;6.20;;;;;;;13.05;100.00;100177.69;5101618;27;20030;-62
2023/10/31 12:37:47;;;;;;;16.40;5.72;;;;;;;12.96;100.00;100193.75;5106818;27;20029;-61
2023/10/31 12:40:17;;;;;;;16.90;6.22;;;;;;;13.06;100.00;100188.28;5100433;27;20033;-61
2023/10/31 12:42:44;;;;;;;16.95;6.10;;;;;;;13.07;100.00;100190.00;5107817;27;20044;-63
2023/10/31 12:45:11;;;;;;;16.60;6.20;;;;;;;12.97;100.00;100192.84;5102086;27;20401;-61
2023/10/31 12:47:37;;;;;;;16.05;5.70;;;;;;;12.89;100.00;100190.31;5101767;27;20504;-61
2023/10/31 12:50:11;;;;;;;15.95;5.40;;;;;;;13.11;100.00;100193.50;5107336;27;20026;-64
2023/10/31 12:52:50;;;;;;;15.05;5.30;;;;;;;15.14;100.00;100185.88;5103160;27;20064;-61
2023/10/31 12:55:21;;;;;;;14.77;4.95;;;;;;;16.20;100.00;100187.47;5096766;27;20033;-61
2023/10/31 12:57:47;;;;;;;13.27;4.90;;;;;;;15.95;100.00;100175.78;5109235;27;20380;-60
2023/10/31 13:00:14;;;;;;;16.08;5.18;;;;;;;15.68;100.00;100175.59;5098905;27;20048;-61
2023/10/31 13:02:40;;;;;;;14.15;4.97;;;;;;;15.74;100.00;100179.88;5104424;27;20033;-61
2023/10/31 13:05:09;;;;;;;14.45;4.93;;;;;;;15.33;100.00;100175.63;5105019;27;20038;-63
2023/10/31 13:07:34;;;;;;;14.40;4.78;;;;;;;14.74;100.00;100173.50;5100939;27;20124;-63
2023/10/31 13:10:00;;;;;;;14.05;4.97;;;;;;;14.19;100.00;100177.38;5109158;27;20102;-61
2023/10/31 13:12:26;;;;;;;14.52;4.70;;;;;;;13.77;100.00;100180.84;5094008;27;20041;-61
2023/10/31 13:14:52;;;;;;;15.93;5.32;;;;;;;13.22;100.00;100178.28;5090313;27;20037;-61
2023/10/31 13:17:17;;;;;;;17.30;5.03;;;;;;;13.06;100.00;100184.72;5110136;27;20115;-62
2023/10/31 13:19:43;;;;;;;16.17;4.97;;;;;;;12.98;100.00;100184.00;5099621;27;20030;-61
2023/10/31 13:22:08;;;;;;;14.38;5.00;;;;;;;13.16;100.00;100196.09;5102202;27;20032;-70
2023/10/31 13:24:34;;;;;;;15.43;4.80;;;;;;;13.20;100.00;100198.66;5105879;27;20487;-69
2023/10/31 13:27:02;;;;;;;14.35;4.65;;;;;;;13.23;100.00;100182.66;5095451;27;20029;-66
2023/10/31 13:29:28;;;;;;;15.30;4.90;;;;;;;13.21;100.00;100199.56;5110558;27;20074;-70
2023/10/31 13:31:53;;;;;;;16.77;4.60;;;;;;;13.23;100.00;100187.97;5093937;27;20028;-71
2023/10/31 13:34:18;;;;;;;13.55;3.97;;;;;;;13.16;100.00;100191.63;5110602;27;20022;-65
2023/10/31 13:36:44;;;;;;;13.57;3.83;;;;;;;13.01;100.00;100199.88;5098354;27;20027;-71
2023/10/31 13:39:09;;;;;;;12.65;3.70;;;;;;;12.80;100.00;100195.75;5103565;27;20032;-71
2023/10/31 13:41:35;;;;;;;15.05;4.00;;;;;;;12.65;100.00;100200.38;5104996;27;20366;-70
2023/10/31 13:44:03;;;;;;;14.30;3.80;;;;;;;12.80;100.00;100198.41;5096748;27;20462;-70
2023/10/31 13:46:28;;;;;;;16.27;4.00;;;;;;;13.11;100.00;100197.94;5109627;27;20377;-66
2023/10/31 13:48:53;;;;;;;13.73;3.88;;;;;;;13.12;100.00;100203.22;5093724;27;20037;-69
2023/10/31 13:51:19;;;;;;;12.45;3.60;;;;;;;12.98;100.00;100197.25;5110244;27;20031;-70
2023/10/31 13:53:44;;;;;;;15.98;3.80;;;;;;;12.77;100.00;100215.25;5097863;27;20081;-66
2023/10/31 13:56:10;;;;;;;12.75;3.53;;;;;;;12.55;100.00;100210.25;5103561;27;20025;-69
2023/10/31 13:58:35;;;;;;;18.33;3.92;;;;;;;12.35;100.00;100207.88;5104585;27;20073;-66
2023/10/31 14:01:01;;;;;;;17.23;4.03;;;;;;;12.11;100.00;100214.34;5097004;27;20036;-66
2023/10/31 14:03:26;;;;;;;13.27;3.70;;;;;;;11.98;100.00;100215.38;5111048;27;20134;-63
2023/10/31 14:05:52;;;;;;;15.10;3.78;;;;;;;11.86;100.00;100225.19;5093218;27;20082;-62
2023/10/31 14:08:17;;;;;;;14.48;3.65;;;;;;;11.78;100.00;100218.22;5108264;27;20030;-61
2023/10/31 14:10:45;;;;;;;13.10;3.50;;;;;;;11.67;100.00;100224.50;5099404;27;20045;-63
2023/10/31 14:13:11;;;;;;;16.10;3.75;;;;;;;11.60;100.00;100224.59;5103597;27;20380;-62
2023/10/31 14:15:36;;;;;;;14.95;3.90;;;;;;;11.58;100.00;100234.31;5103473;27;20152;-62
2023/10/31 14:18:02;;;;;;;14.13;3.85;;;;;;;11.52;100.00;100225.53;5097340;27;20112;-61
2023/10/31 14:20:28;;;;;;;16.50;4.10;;;;;;;11.42;100.00;100226.50;5109791;27;20480;-61
2023/10/31 14:22:53;;;;;;;15.60;3.90;;;;;;;11.40;100.00;100233.59;5093156;27;20051;-60
2023/10/31 14:25:19;;;;;;;13.80;3.78;;;;;;;11.21;100.00;100234.63;5109634;27;20030;-63
2023/10/31 14:27:44;;;;;;;15.75;4.70;;;;;;;10.92;100.00;100233.06;5097987;27;20118;-61
2023/10/31 14:30:11;;;;;;;17.42;4.68;;;;;;;10.63;100.00;100236.78;5102898;27;20071;-60